sensor_id;sensor_type;location;lat;lon;timestamp;temperature;humidity
37222;DHT22;23119;51.842;-2.230;2022-09-27T00:01:49;12.00;99.90
37222;DHT22;23119;51.842;-2.230;2022-09-27T00:04:17;12.00;99.90
37222;DHT22;23119;51.842;-2.230;2022-09-27T00:06:45;12.00;99.90
37222;DHT22;23119;51.842;-2.230;2022-09-27T00:09:13;12.00;99.90
37222;DHT22;23119;51.842;-2.230;2022-09-27T00:11:43;12.00;99.90
37222;DHT22;23119;51.842;-2.230;2022-09-27T00:14:11;12.00;99.90
37222;DHT22;23119;51.842;-2.230;2022-09-27T00:16:40;12.00;99.90
37222;DHT22;23119;51.842;-2.230;2022-09-27T00:19:14;12.00;99.90
37222;DHT22;23119;51.842;-2.230;2022-09-27T00:21:41;12.00;99.90
37222;DHT22;23119;51.842;-2.230;2022-09-27T00:24:19;12.00;99.90
37222;DHT22;23119;51.842;-2.230;2022-09-27T00:26:46;11.90;99.90
37222;DHT22;23119;51.842;-2.230;2022-09-27T00:29:13;12.00;99.90
37222;DHT22;23119;51.842;-2.230;2022-09-27T00:31:41;12.00;99.90
37222;DHT22;23119;51.842;-2.230;2022-09-27T00:34:19;11.90;99.90
37222;DHT22;23119;51.842;-2.230;2022-09-27T00:36:46;12.00;99.90
37222;DHT22;23119;51.842;-2.230;2022-09-27T00:39:12;12.00;99.90
37222;DHT22;23119;51.842;-2.230;2022-09-27T00:41:41;12.00;99.90
37222;DHT22;23119;51.842;-2.230;2022-09-27T00:47:23;12.00;99.90
37222;DHT22;23119;51.842;-2.230;2022-09-27T00:55:45;12.00;99.90
37222;DHT22;23119;51.842;-2.230;2022-09-27T00:58:18;12.00;99.90
37222;DHT22;23119;51.842;-2.230;2022-09-27T01:00:55;12.00;99.90
37222;DHT22;23119;51.842;-2.230;2022-09-27T01:03:36;12.00;99.90
37222;DHT22;23119;51.842;-2.230;2022-09-27T01:06:05;11.90;99.90
37222;DHT22;23119;51.842;-2.230;2022-09-27T01:08:34;11.90;99.90
37222;DHT22;23119;51.842;-2.230;2022-09-27T01:11:13;12.00;99.90
37222;DHT22;23119;51.842;-2.230;2022-09-27T01:14:03;11.90;99.90
37222;DHT22;23119;51.842;-2.230;2022-09-27T01:16:54;11.90;99.90
37222;DHT22;23119;51.842;-2.230;2022-09-27T01:22:10;11.90;99.90
37222;DHT22;23119;51.842;-2.230;2022-09-27T01:30:21;11.90;99.90
37222;DHT22;23119;51.842;-2.230;2022-09-27T01:33:14;11.80;99.90
37222;DHT22;23119;51.842;-2.230;2022-09-27T01:36:03;11.80;99.90
37222;DHT22;23119;51.842;-2.230;2022-09-27T01:38:44;11.90;99.90
37222;DHT22;23119;51.842;-2.230;2022-09-27T01:41:33;11.80;99.90
37222;DHT22;23119;51.842;-2.230;2022-09-27T01:44:05;11.80;99.90
37222;DHT22;23119;51.842;-2.230;2022-09-27T01:46:42;11.80;99.90
37222;DHT22;23119;51.842;-2.230;2022-09-27T01:49:16;11.90;99.90
37222;DHT22;23119;51.842;-2.230;2022-09-27T01:51:49;11.90;99.90
37222;DHT22;23119;51.842;-2.230;2022-09-27T01:54:25;11.90;99.90
37222;DHT22;23119;51.842;-2.230;2022-09-27T01:56:59;11.90;99.90
37222;DHT22;23119;51.842;-2.230;2022-09-27T01:59:51;11.90;99.90
37222;DHT22;23119;51.842;-2.230;2022-09-27T02:02:16;11.90;99.90
37222;DHT22;23119;51.842;-2.230;2022-09-27T02:04:43;11.90;99.90
37222;DHT22;23119;51.842;-2.230;2022-09-27T02:07:19;11.90;99.90
37222;DHT22;23119;51.842;-2.230;2022-09-27T02:10:18;11.90;99.90
37222;DHT22;23119;51.842;-2.230;2022-09-27T02:12:53;11.90;99.90
37222;DHT22;23119;51.842;-2.230;2022-09-27T02:15:22;12.00;99.90
37222;DHT22;23119;51.842;-2.230;2022-09-27T02:18:08;12.00;99.90
37222;DHT22;23119;51.842;-2.230;2022-09-27T02:20:48;12.00;99.90
37222;DHT22;23119;51.842;-2.230;2022-09-27T02:23:20;12.00;99.90
37222;DHT22;23119;51.842;-2.230;2022-09-27T02:25:53;12.00;99.90
37222;DHT22;23119;51.842;-2.230;2022-09-27T02:30:55;12.00;99.90
37222;DHT22;23119;51.842;-2.230;2022-09-27T02:33:25;12.00;99.90
37222;DHT22;23119;51.842;-2.230;2022-09-27T02:35:53;12.00;99.90
37222;DHT22;23119;51.842;-2.230;2022-09-27T02:38:20;12.00;99.90
37222;DHT22;23119;51.842;-2.230;2022-09-27T02:40:46;12.00;99.90
37222;DHT22;23119;51.842;-2.230;2022-09-27T02:43:14;12.00;99.90
37222;DHT22;23119;51.842;-2.230;2022-09-27T02:46:05;12.10;99.90
37222;DHT22;23119;51.842;-2.230;2022-09-27T03:02:26;12.00;99.90
37222;DHT22;23119;51.842;-2.230;2022-09-27T03:05:00;12.00;99.90
37222;DHT22;23119;51.842;-2.230;2022-09-27T03:07:27;12.00;99.90
37222;DHT22;23119;51.842;-2.230;2022-09-27T03:09:56;11.90;99.90
37222;DHT22;23119;51.842;-2.230;2022-09-27T03:12:24;11.90;99.90
37222;DHT22;23119;51.842;-2.230;2022-09-27T03:14:55;11.90;99.90
37222;DHT22;23119;51.842;-2.230;2022-09-27T03:17:21;11.90;99.90
37222;DHT22;23119;51.842;-2.230;2022-09-27T03:19:48;11.90;99.90
37222;DHT22;23119;51.842;-2.230;2022-09-27T03:22:19;11.80;99.90
37222;DHT22;23119;51.842;-2.230;2022-09-27T03:24:45;11.80;99.90
37222;DHT22;23119;51.842;-2.230;2022-09-27T03:27:13;11.80;99.90
37222;DHT22;23119;51.842;-2.230;2022-09-27T03:29:42;11.70;99.90
37222;DHT22;23119;51.842;-2.230;2022-09-27T03:32:08;11.70;99.90
37222;DHT22;23119;51.842;-2.230;2022-09-27T03:34:33;11.60;99.90
37222;DHT22;23119;51.842;-2.230;2022-09-27T03:36:59;11.50;99.90
37222;DHT22;23119;51.842;-2.230;2022-09-27T03:39:25;11.50;99.90
37222;DHT22;23119;51.842;-2.230;2022-09-27T03:41:51;11.50;99.90
37222;DHT22;23119;51.842;-2.230;2022-09-27T03:44:17;11.50;99.90
37222;DHT22;23119;51.842;-2.230;2022-09-27T03:46:46;11.40;99.90
37222;DHT22;23119;51.842;-2.230;2022-09-27T03:49:12;11.40;99.90
37222;DHT22;23119;51.842;-2.230;2022-09-27T03:51:38;11.40;99.90
37222;DHT22;23119;51.842;-2.230;2022-09-27T03:54:04;11.40;99.90
37222;DHT22;23119;51.842;-2.230;2022-09-27T03:56:30;11.40;99.90
37222;DHT22;23119;51.842;-2.230;2022-09-27T03:59:00;11.40;99.90
37222;DHT22;23119;51.842;-2.230;2022-09-27T04:01:26;11.40;99.90
37222;DHT22;23119;51.842;-2.230;2022-09-27T04:03:53;11.40;99.90
37222;DHT22;23119;51.842;-2.230;2022-09-27T04:06:22;11.30;99.90
37222;DHT22;23119;51.842;-2.230;2022-09-27T04:08:48;11.30;99.90
37222;DHT22;23119;51.842;-2.230;2022-09-27T04:11:14;11.20;99.90
37222;DHT22;23119;51.842;-2.230;2022-09-27T04:13:42;11.20;99.90
37222;DHT22;23119;51.842;-2.230;2022-09-27T04:16:09;11.10;99.90
37222;DHT22;23119;51.842;-2.230;2022-09-27T04:18:36;11.10;99.90
37222;DHT22;23119;51.842;-2.230;2022-09-27T04:21:02;11.60;99.90
37222;DHT22;23119;51.842;-2.230;2022-09-27T04:23:31;11.00;99.90
37222;DHT22;23119;51.842;-2.230;2022-09-27T04:25:58;11.00;99.90
37222;DHT22;23119;51.842;-2.230;2022-09-27T04:28:24;11.00;99.90
37222;DHT22;23119;51.842;-2.230;2022-09-27T04:30:49;10.90;99.90
37222;DHT22;23119;51.842;-2.230;2022-09-27T04:33:15;10.90;99.90
37222;DHT22;23119;51.842;-2.230;2022-09-27T04:35:42;10.90;99.90
37222;DHT22;23119;51.842;-2.230;2022-09-27T04:38:26;10.80;99.90
37222;DHT22;23119;51.842;-2.230;2022-09-27T04:40:52;10.80;99.90
37222;DHT22;23119;51.842;-2.230;2022-09-27T04:43:24;10.70;99.90
37222;DHT22;23119;51.842;-2.230;2022-09-27T04:45:49;10.70;99.90
37222;DHT22;23119;51.842;-2.230;2022-09-27T04:48:15;10.70;99.90
37222;DHT22;23119;51.842;-2.230;2022-09-27T04:50:44;10.60;99.90
37222;DHT22;23119;51.842;-2.230;2022-09-27T04:53:36;10.60;99.90
37222;DHT22;23119;51.842;-2.230;2022-09-27T04:56:04;10.60;99.90
37222;DHT22;23119;51.842;-2.230;2022-09-27T04:58:33;10.60;99.90
37222;DHT22;23119;51.842;-2.230;2022-09-27T05:00:59;10.60;99.90
37222;DHT22;23119;51.842;-2.230;2022-09-27T05:03:29;10.50;99.90
37222;DHT22;23119;51.842;-2.230;2022-09-27T05:05:58;10.50;99.90
37222;DHT22;23119;51.842;-2.230;2022-09-27T05:08:26;10.50;99.90
37222;DHT22;23119;51.842;-2.230;2022-09-27T05:10:53;10.50;99.90
37222;DHT22;23119;51.842;-2.230;2022-09-27T05:13:19;10.50;99.90
37222;DHT22;23119;51.842;-2.230;2022-09-27T05:15:45;10.60;99.90
37222;DHT22;23119;51.842;-2.230;2022-09-27T05:18:16;10.60;99.90
37222;DHT22;23119;51.842;-2.230;2022-09-27T05:20:45;10.60;99.90
37222;DHT22;23119;51.842;-2.230;2022-09-27T05:23:14;10.70;99.90
37222;DHT22;23119;51.842;-2.230;2022-09-27T05:25:43;10.70;99.90
37222;DHT22;23119;51.842;-2.230;2022-09-27T05:28:11;10.80;99.90
37222;DHT22;23119;51.842;-2.230;2022-09-27T05:30:56;10.80;99.90
37222;DHT22;23119;51.842;-2.230;2022-09-27T05:33:22;10.80;99.90
37222;DHT22;23119;51.842;-2.230;2022-09-27T05:35:55;10.80;99.90
37222;DHT22;23119;51.842;-2.230;2022-09-27T05:38:24;10.80;99.90
37222;DHT22;23119;51.842;-2.230;2022-09-27T05:40:50;10.80;99.90
37222;DHT22;23119;51.842;-2.230;2022-09-27T05:43:17;10.80;99.90
37222;DHT22;23119;51.842;-2.230;2022-09-27T05:45:45;10.80;99.90
37222;DHT22;23119;51.842;-2.230;2022-09-27T05:48:11;10.80;99.90
37222;DHT22;23119;51.842;-2.230;2022-09-27T05:50:38;10.70;99.90
37222;DHT22;23119;51.842;-2.230;2022-09-27T05:53:06;10.70;99.90
37222;DHT22;23119;51.842;-2.230;2022-09-27T05:55:42;10.70;99.90
37222;DHT22;23119;51.842;-2.230;2022-09-27T05:58:12;10.70;99.90
37222;DHT22;23119;51.842;-2.230;2022-09-27T06:00:41;10.80;99.90
37222;DHT22;23119;51.842;-2.230;2022-09-27T06:03:11;10.80;99.90
37222;DHT22;23119;51.842;-2.230;2022-09-27T06:05:39;10.80;99.90
37222;DHT22;23119;51.842;-2.230;2022-09-27T06:08:09;10.80;99.90
37222;DHT22;23119;51.842;-2.230;2022-09-27T06:10:40;10.80;99.90
37222;DHT22;23119;51.842;-2.230;2022-09-27T06:13:13;10.90;99.90
37222;DHT22;23119;51.842;-2.230;2022-09-27T06:15:40;10.90;99.90
37222;DHT22;23119;51.842;-2.230;2022-09-27T06:18:11;10.90;99.90
37222;DHT22;23119;51.842;-2.230;2022-09-27T06:20:38;10.90;99.90
37222;DHT22;23119;51.842;-2.230;2022-09-27T06:23:11;10.90;99.90
37222;DHT22;23119;51.842;-2.230;2022-09-27T06:25:37;11.00;99.90
37222;DHT22;23119;51.842;-2.230;2022-09-27T06:28:03;11.00;99.90
37222;DHT22;23119;51.842;-2.230;2022-09-27T06:30:32;11.00;99.90
37222;DHT22;23119;51.842;-2.230;2022-09-27T06:33:01;11.00;99.90
37222;DHT22;23119;51.842;-2.230;2022-09-27T06:35:33;11.00;99.90
37222;DHT22;23119;51.842;-2.230;2022-09-27T06:38:01;11.10;99.90
37222;DHT22;23119;51.842;-2.230;2022-09-27T06:40:29;11.10;99.90
37222;DHT22;23119;51.842;-2.230;2022-09-27T06:43:05;11.10;99.90
37222;DHT22;23119;51.842;-2.230;2022-09-27T06:45:32;11.10;99.90
37222;DHT22;23119;51.842;-2.230;2022-09-27T06:48:04;11.10;99.90
37222;DHT22;23119;51.842;-2.230;2022-09-27T06:50:37;11.10;99.90
37222;DHT22;23119;51.842;-2.230;2022-09-27T06:53:05;11.20;99.90
37222;DHT22;23119;51.842;-2.230;2022-09-27T06:55:33;11.10;99.90
37222;DHT22;23119;51.842;-2.230;2022-09-27T06:58:01;11.20;99.90
37222;DHT22;23119;51.842;-2.230;2022-09-27T07:00:52;11.60;99.90
37222;DHT22;23119;51.842;-2.230;2022-09-27T07:03:22;13.40;99.90
37222;DHT22;23119;51.842;-2.230;2022-09-27T07:05:57;15.20;99.90
37222;DHT22;23119;51.842;-2.230;2022-09-27T07:08:24;16.80;99.90
37222;DHT22;23119;51.842;-2.230;2022-09-27T07:11:09;17.00;99.90
37222;DHT22;23119;51.842;-2.230;2022-09-27T07:13:35;16.70;99.90
37222;DHT22;23119;51.842;-2.230;2022-09-27T07:16:07;16.70;99.90
37222;DHT22;23119;51.842;-2.230;2022-09-27T07:18:35;18.10;99.90
37222;DHT22;23119;51.842;-2.230;2022-09-27T07:21:01;19.20;97.50
37222;DHT22;23119;51.842;-2.230;2022-09-27T07:23:29;20.60;96.40
37222;DHT22;23119;51.842;-2.230;2022-09-27T07:25:55;22.00;94.50
37222;DHT22;23119;51.842;-2.230;2022-09-27T07:28:31;23.30;92.50
37222;DHT22;23119;51.842;-2.230;2022-09-27T07:31:02;22.80;91.00
37222;DHT22;23119;51.842;-2.230;2022-09-27T07:33:29;21.90;93.00
37222;DHT22;23119;51.842;-2.230;2022-09-27T07:35:55;21.00;93.90
37222;DHT22;23119;51.842;-2.230;2022-09-27T07:38:21;20.20;94.30
37222;DHT22;23119;51.842;-2.230;2022-09-27T07:40:47;19.30;94.80
37222;DHT22;23119;51.842;-2.230;2022-09-27T07:43:15;18.50;95.60
37222;DHT22;23119;51.842;-2.230;2022-09-27T07:45:46;17.70;96.40
37222;DHT22;23119;51.842;-2.230;2022-09-27T07:48:14;17.10;97.20
37222;DHT22;23119;51.842;-2.230;2022-09-27T07:50:39;16.60;97.90
37222;DHT22;23119;51.842;-2.230;2022-09-27T07:53:13;16.10;98.60
37222;DHT22;23119;51.842;-2.230;2022-09-27T07:55:50;15.70;99.30
37222;DHT22;23119;51.842;-2.230;2022-09-27T07:58:17;15.30;99.90
37222;DHT22;23119;51.842;-2.230;2022-09-27T08:00:43;14.90;99.90
37222;DHT22;23119;51.842;-2.230;2022-09-27T08:03:11;14.70;99.90
37222;DHT22;23119;51.842;-2.230;2022-09-27T08:05:46;14.50;99.90
37222;DHT22;23119;51.842;-2.230;2022-09-27T08:08:13;14.30;99.90
37222;DHT22;23119;51.842;-2.230;2022-09-27T08:10:42;14.10;99.90
37222;DHT22;23119;51.842;-2.230;2022-09-27T08:13:11;14.00;99.90
37222;DHT22;23119;51.842;-2.230;2022-09-27T08:15:39;13.90;99.90
37222;DHT22;23119;51.842;-2.230;2022-09-27T08:18:07;13.80;99.90
37222;DHT22;23119;51.842;-2.230;2022-09-27T08:20:36;13.70;99.90
37222;DHT22;23119;51.842;-2.230;2022-09-27T08:23:01;13.60;99.90
37222;DHT22;23119;51.842;-2.230;2022-09-27T08:25:31;13.60;99.90
37222;DHT22;23119;51.842;-2.230;2022-09-27T08:27:58;13.70;99.90
37222;DHT22;23119;51.842;-2.230;2022-09-27T08:30:27;13.70;99.90
37222;DHT22;23119;51.842;-2.230;2022-09-27T08:32:58;13.90;99.90
37222;DHT22;23119;51.842;-2.230;2022-09-27T08:35:24;14.80;99.90
37222;DHT22;23119;51.842;-2.230;2022-09-27T08:38:00;16.70;99.90
37222;DHT22;23119;51.842;-2.230;2022-09-27T08:48:37;23.20;94.00
37222;DHT22;23119;51.842;-2.230;2022-09-27T08:51:12;23.80;92.40
37222;DHT22;23119;51.842;-2.230;2022-09-27T08:54:10;23.60;91.80
37222;DHT22;23119;51.842;-2.230;2022-09-27T08:56:38;23.00;91.60
37222;DHT22;23119;51.842;-2.230;2022-09-27T08:59:15;22.30;92.40
37222;DHT22;23119;51.842;-2.230;2022-09-27T09:01:45;21.50;93.00
37222;DHT22;23119;51.842;-2.230;2022-09-27T09:04:15;20.60;93.50
37222;DHT22;23119;51.842;-2.230;2022-09-27T09:09:40;19.20;94.70
37222;DHT22;23119;51.842;-2.230;2022-09-27T09:20:21;16.80;97.80
37222;DHT22;23119;51.842;-2.230;2022-09-27T09:28:46;16.00;99.60
37222;DHT22;23119;51.842;-2.230;2022-09-27T09:36:38;15.80;99.90
37222;DHT22;23119;51.842;-2.230;2022-09-27T09:39:14;15.70;99.90
37222;DHT22;23119;51.842;-2.230;2022-09-27T09:44:48;15.50;99.90
37222;DHT22;23119;51.842;-2.230;2022-09-27T09:50:02;15.30;99.90
37222;DHT22;23119;51.842;-2.230;2022-09-27T09:52:42;15.30;99.90
37222;DHT22;23119;51.842;-2.230;2022-09-27T09:55:23;15.20;99.90
37222;DHT22;23119;51.842;-2.230;2022-09-27T09:58:11;15.20;99.90
37222;DHT22;23119;51.842;-2.230;2022-09-27T10:00:41;15.20;99.90
37222;DHT22;23119;51.842;-2.230;2022-09-27T10:03:07;15.30;99.90
37222;DHT22;23119;51.842;-2.230;2022-09-27T10:05:43;15.30;99.90
37222;DHT22;23119;51.842;-2.230;2022-09-27T10:08:18;15.40;99.90
37222;DHT22;23119;51.842;-2.230;2022-09-27T10:10:49;15.40;99.90
37222;DHT22;23119;51.842;-2.230;2022-09-27T10:13:17;15.50;99.90
37222;DHT22;23119;51.842;-2.230;2022-09-27T10:15:51;15.60;99.90
37222;DHT22;23119;51.842;-2.230;2022-09-27T10:18:22;15.80;99.90
37222;DHT22;23119;51.842;-2.230;2022-09-27T10:20:54;16.10;99.90
37222;DHT22;23119;51.842;-2.230;2022-09-27T10:23:22;16.20;99.90
37222;DHT22;23119;51.842;-2.230;2022-09-27T10:25:53;16.20;99.90
37222;DHT22;23119;51.842;-2.230;2022-09-27T10:30:59;16.30;99.90
37222;DHT22;23119;51.842;-2.230;2022-09-27T10:33:26;16.30;99.90
37222;DHT22;23119;51.842;-2.230;2022-09-27T10:35:54;16.30;99.90
37222;DHT22;23119;51.842;-2.230;2022-09-27T10:38:21;16.30;99.90
37222;DHT22;23119;51.842;-2.230;2022-09-27T10:40:48;16.30;99.90
37222;DHT22;23119;51.842;-2.230;2022-09-27T10:43:29;16.30;99.80
37222;DHT22;23119;51.842;-2.230;2022-09-27T10:48:44;16.30;99.10
37222;DHT22;23119;51.842;-2.230;2022-09-27T10:51:29;16.30;99.40
37222;DHT22;23119;51.842;-2.230;2022-09-27T10:53:56;16.40;99.00
37222;DHT22;23119;51.842;-2.230;2022-09-27T10:56:33;16.50;99.00
37222;DHT22;23119;51.842;-2.230;2022-09-27T10:59:17;16.50;98.60
37222;DHT22;23119;51.842;-2.230;2022-09-27T11:01:48;16.50;98.30
37222;DHT22;23119;51.842;-2.230;2022-09-27T11:04:34;16.90;98.50
37222;DHT22;23119;51.842;-2.230;2022-09-27T11:07:18;16.60;97.70
37222;DHT22;23119;51.842;-2.230;2022-09-27T11:09:56;16.70;97.80
37222;DHT22;23119;51.842;-2.230;2022-09-27T11:12:28;16.70;97.20
37222;DHT22;23119;51.842;-2.230;2022-09-27T11:15:04;16.80;97.00
37222;DHT22;23119;51.842;-2.230;2022-09-27T11:20:23;17.20;96.30
37222;DHT22;23119;51.842;-2.230;2022-09-27T11:23:15;17.30;95.80
37222;DHT22;23119;51.842;-2.230;2022-09-27T11:39:25;17.70;94.50
37222;DHT22;23119;51.842;-2.230;2022-09-27T12:07:00;17.20;95.20
37222;DHT22;23119;51.842;-2.230;2022-09-27T12:09:38;17.10;95.60
37222;DHT22;23119;51.842;-2.230;2022-09-27T12:14:44;17.00;95.70
37222;DHT22;23119;51.842;-2.230;2022-09-27T12:17:15;17.00;95.50
37222;DHT22;23119;51.842;-2.230;2022-09-27T12:19:55;17.10;95.50
37222;DHT22;23119;51.842;-2.230;2022-09-27T12:22:35;17.10;95.60
37222;DHT22;23119;51.842;-2.230;2022-09-27T12:25:07;17.20;95.30
37222;DHT22;23119;51.842;-2.230;2022-09-27T12:28:00;17.20;95.40
37222;DHT22;23119;51.842;-2.230;2022-09-27T12:30:23;17.30;95.00
37222;DHT22;23119;51.842;-2.230;2022-09-27T12:33:15;17.40;95.30
37222;DHT22;23119;51.842;-2.230;2022-09-27T12:35:50;17.30;95.20
37222;DHT22;23119;51.842;-2.230;2022-09-27T12:41:00;17.30;95.10
37222;DHT22;23119;51.842;-2.230;2022-09-27T12:43:27;17.30;95.20
37222;DHT22;23119;51.842;-2.230;2022-09-27T12:51:52;17.40;95.00
37222;DHT22;23119;51.842;-2.230;2022-09-27T13:00:32;17.40;94.40
37222;DHT22;23119;51.842;-2.230;2022-09-27T13:03:19;17.40;94.50
37222;DHT22;23119;51.842;-2.230;2022-09-27T13:12:32;17.00;94.00
37222;DHT22;23119;51.842;-2.230;2022-09-27T13:15:05;16.90;94.40
37222;DHT22;23119;51.842;-2.230;2022-09-27T13:22:52;16.50;94.70
37222;DHT22;23119;51.842;-2.230;2022-09-27T13:31:04;16.10;95.60
37222;DHT22;23119;51.842;-2.230;2022-09-27T13:36:29;16.00;96.20
37222;DHT22;23119;51.842;-2.230;2022-09-27T13:41:41;16.10;96.50
37222;DHT22;23119;51.842;-2.230;2022-09-27T13:47:32;16.50;96.80
37222;DHT22;23119;51.842;-2.230;2022-09-27T13:50:25;16.90;96.80
37222;DHT22;23119;51.842;-2.230;2022-09-27T13:53:11;17.20;96.60
37222;DHT22;23119;51.842;-2.230;2022-09-27T13:55:47;17.50;96.30
37222;DHT22;23119;51.842;-2.230;2022-09-27T13:58:54;17.70;96.00
37222;DHT22;23119;51.842;-2.230;2022-09-27T14:01:29;17.90;95.70
37222;DHT22;23119;51.842;-2.230;2022-09-27T14:04:20;18.00;95.70
37222;DHT22;23119;51.842;-2.230;2022-09-27T14:06:50;18.30;95.40
37222;DHT22;23119;51.842;-2.230;2022-09-27T14:09:29;18.60;95.10
37222;DHT22;23119;51.842;-2.230;2022-09-27T14:11:59;18.70;94.30
37222;DHT22;23119;51.842;-2.230;2022-09-27T14:14:30;18.70;94.40
37222;DHT22;23119;51.842;-2.230;2022-09-27T14:17:08;18.50;94.30
37222;DHT22;23119;51.842;-2.230;2022-09-27T14:19:38;18.40;94.30
37222;DHT22;23119;51.842;-2.230;2022-09-27T14:22:11;18.20;94.30
37222;DHT22;23119;51.842;-2.230;2022-09-27T14:27:11;18.00;94.70
37222;DHT22;23119;51.842;-2.230;2022-09-27T14:32:33;18.70;94.50
37222;DHT22;23119;51.842;-2.230;2022-09-27T14:35:25;18.00;94.00
37222;DHT22;23119;51.842;-2.230;2022-09-27T14:38:14;17.90;93.90
37222;DHT22;23119;51.842;-2.230;2022-09-27T14:41:02;17.80;94.10
37222;DHT22;23119;51.842;-2.230;2022-09-27T14:43:31;17.60;94.10
37222;DHT22;23119;51.842;-2.230;2022-09-27T14:46:04;17.50;94.30
37222;DHT22;23119;51.842;-2.230;2022-09-27T14:48:43;17.40;94.30
37222;DHT22;23119;51.842;-2.230;2022-09-27T14:53:43;17.10;94.80
37222;DHT22;23119;51.842;-2.230;2022-09-27T14:56:21;16.90;95.00
37222;DHT22;23119;51.842;-2.230;2022-09-27T14:58:57;16.80;95.20
37222;DHT22;23119;51.842;-2.230;2022-09-27T15:01:27;16.60;95.30
37222;DHT22;23119;51.842;-2.230;2022-09-27T15:03:55;16.40;95.20
37222;DHT22;23119;51.842;-2.230;2022-09-27T15:06:27;16.30;95.40
37222;DHT22;23119;51.842;-2.230;2022-09-27T15:08:57;16.20;95.60
37222;DHT22;23119;51.842;-2.230;2022-09-27T15:11:23;16.00;96.30
37222;DHT22;23119;51.842;-2.230;2022-09-27T15:13:51;15.90;96.70
37222;DHT22;23119;51.842;-2.230;2022-09-27T15:16:21;15.90;97.40
37222;DHT22;23119;51.842;-2.230;2022-09-27T15:19:02;15.80;97.50
37222;DHT22;23119;51.842;-2.230;2022-09-27T15:21:36;15.80;97.80
37222;DHT22;23119;51.842;-2.230;2022-09-27T15:24:02;15.70;98.00
37222;DHT22;23119;51.842;-2.230;2022-09-27T15:26:48;15.80;98.00
37222;DHT22;23119;51.842;-2.230;2022-09-27T15:29:24;15.80;98.20
37222;DHT22;23119;51.842;-2.230;2022-09-27T15:32:06;15.80;98.40
37222;DHT22;23119;51.842;-2.230;2022-09-27T15:34:49;15.80;98.40
37222;DHT22;23119;51.842;-2.230;2022-09-27T15:37:39;15.80;98.50
37222;DHT22;23119;51.842;-2.230;2022-09-27T15:42:59;15.80;99.00
37222;DHT22;23119;51.842;-2.230;2022-09-27T15:45:33;15.70;99.00
37222;DHT22;23119;51.842;-2.230;2022-09-27T15:48:13;15.60;98.90
37222;DHT22;23119;51.842;-2.230;2022-09-27T15:50:39;15.50;99.30
37222;DHT22;23119;51.842;-2.230;2022-09-27T15:53:07;15.30;99.30
37222;DHT22;23119;51.842;-2.230;2022-09-27T15:55:41;15.30;99.90
37222;DHT22;23119;51.842;-2.230;2022-09-27T15:58:28;15.30;99.80
37222;DHT22;23119;51.842;-2.230;2022-09-27T16:00:55;15.30;99.90
37222;DHT22;23119;51.842;-2.230;2022-09-27T16:03:24;15.30;99.90
37222;DHT22;23119;51.842;-2.230;2022-09-27T16:06:01;15.30;99.90
37222;DHT22;23119;51.842;-2.230;2022-09-27T16:08:30;15.30;99.90
37222;DHT22;23119;51.842;-2.230;2022-09-27T16:11:01;15.30;99.90
37222;DHT22;23119;51.842;-2.230;2022-09-27T16:13:32;15.30;99.90
37222;DHT22;23119;51.842;-2.230;2022-09-27T16:16:03;15.20;99.90
37222;DHT22;23119;51.842;-2.230;2022-09-27T16:18:29;15.20;99.90
37222;DHT22;23119;51.842;-2.230;2022-09-27T16:20:58;15.20;99.90
37222;DHT22;23119;51.842;-2.230;2022-09-27T16:23:24;15.10;99.90
37222;DHT22;23119;51.842;-2.230;2022-09-27T16:25:55;15.10;99.90
37222;DHT22;23119;51.842;-2.230;2022-09-27T16:28:21;15.00;99.90
37222;DHT22;23119;51.842;-2.230;2022-09-27T16:30:52;15.00;99.90
37222;DHT22;23119;51.842;-2.230;2022-09-27T16:33:18;14.90;99.90
37222;DHT22;23119;51.842;-2.230;2022-09-27T16:35:46;14.90;99.90
37222;DHT22;23119;51.842;-2.230;2022-09-27T16:38:13;14.90;99.90
37222;DHT22;23119;51.842;-2.230;2022-09-27T16:40:39;14.90;99.90
37222;DHT22;23119;51.842;-2.230;2022-09-27T16:43:17;14.80;99.90
37222;DHT22;23119;51.842;-2.230;2022-09-27T16:45:43;14.80;99.90
37222;DHT22;23119;51.842;-2.230;2022-09-27T16:48:08;14.80;99.90
37222;DHT22;23119;51.842;-2.230;2022-09-27T16:50:40;14.80;99.90
37222;DHT22;23119;51.842;-2.230;2022-09-27T16:53:24;14.80;99.90
37222;DHT22;23119;51.842;-2.230;2022-09-27T16:55:57;14.70;99.90
37222;DHT22;23119;51.842;-2.230;2022-09-27T16:58:27;14.70;99.90
37222;DHT22;23119;51.842;-2.230;2022-09-27T17:00:59;14.60;99.90
37222;DHT22;23119;51.842;-2.230;2022-09-27T17:03:27;14.60;99.90
37222;DHT22;23119;51.842;-2.230;2022-09-27T17:06:06;14.50;99.90
37222;DHT22;23119;51.842;-2.230;2022-09-27T17:08:32;14.50;99.90
37222;DHT22;23119;51.842;-2.230;2022-09-27T17:11:11;14.40;99.90
37222;DHT22;23119;51.842;-2.230;2022-09-27T17:13:39;14.40;99.90
37222;DHT22;23119;51.842;-2.230;2022-09-27T17:16:08;14.40;99.90
37222;DHT22;23119;51.842;-2.230;2022-09-27T17:18:37;14.30;99.90
37222;DHT22;23119;51.842;-2.230;2022-09-27T17:21:08;14.30;99.90
37222;DHT22;23119;51.842;-2.230;2022-09-27T17:23:37;14.30;99.90
37222;DHT22;23119;51.842;-2.230;2022-09-27T17:26:14;14.30;99.90
37222;DHT22;23119;51.842;-2.230;2022-09-27T17:28:40;14.20;99.90
37222;DHT22;23119;51.842;-2.230;2022-09-27T17:31:12;14.10;99.90
37222;DHT22;23119;51.842;-2.230;2022-09-27T17:33:44;14.10;99.90
37222;DHT22;23119;51.842;-2.230;2022-09-27T17:36:15;14.10;99.90
37222;DHT22;23119;51.842;-2.230;2022-09-27T17:38:42;14.00;99.90
37222;DHT22;23119;51.842;-2.230;2022-09-27T17:41:11;14.00;99.90
37222;DHT22;23119;51.842;-2.230;2022-09-27T17:43:39;13.90;99.90
37222;DHT22;23119;51.842;-2.230;2022-09-27T17:46:09;13.90;99.90
37222;DHT22;23119;51.842;-2.230;2022-09-27T17:48:39;13.80;99.90
37222;DHT22;23119;51.842;-2.230;2022-09-27T17:51:24;13.80;99.90
37222;DHT22;23119;51.842;-2.230;2022-09-27T17:53:52;13.70;99.90
37222;DHT22;23119;51.842;-2.230;2022-09-27T17:56:18;13.60;99.90
37222;DHT22;23119;51.842;-2.230;2022-09-27T17:58:49;13.60;99.90
37222;DHT22;23119;51.842;-2.230;2022-09-27T18:01:19;13.50;99.90
37222;DHT22;23119;51.842;-2.230;2022-09-27T18:03:45;13.40;99.90
37222;DHT22;23119;51.842;-2.230;2022-09-27T18:06:14;13.40;99.90
37222;DHT22;23119;51.842;-2.230;2022-09-27T18:08:43;13.30;99.90
37222;DHT22;23119;51.842;-2.230;2022-09-27T18:11:16;13.30;99.90
37222;DHT22;23119;51.842;-2.230;2022-09-27T18:13:44;13.20;99.90
37222;DHT22;23119;51.842;-2.230;2022-09-27T18:16:15;13.20;99.90
37222;DHT22;23119;51.842;-2.230;2022-09-27T18:18:46;13.10;99.90
37222;DHT22;23119;51.842;-2.230;2022-09-27T18:21:18;13.10;99.90
37222;DHT22;23119;51.842;-2.230;2022-09-27T18:23:48;13.00;99.90
37222;DHT22;23119;51.842;-2.230;2022-09-27T18:26:17;13.00;99.90
37222;DHT22;23119;51.842;-2.230;2022-09-27T18:28:44;13.00;99.90
37222;DHT22;23119;51.842;-2.230;2022-09-27T18:31:14;13.00;99.90
37222;DHT22;23119;51.842;-2.230;2022-09-27T18:33:40;12.90;99.90
37222;DHT22;23119;51.842;-2.230;2022-09-27T18:36:12;12.90;99.90